createdAt,value
2018-05-08T00:00:20.654Z,4.00
2018-05-08T00:01:20.685Z,3.90
2018-05-08T00:02:20.706Z,3.50
2018-05-08T00:03:20.685Z,3.80
2018-05-08T00:04:20.737Z,5.40
2018-05-08T00:05:20.723Z,4.20
2018-05-08T00:06:20.777Z,4.80
2018-05-08T00:07:20.740Z,4.30
2018-05-08T00:08:20.792Z,4.90
2018-05-08T00:09:20.762Z,4.70
2018-05-08T00:10:20.776Z,4.00
2018-05-08T00:11:20.832Z,4.10
2018-05-08T00:12:20.818Z,3.60
2018-05-08T00:13:20.809Z,3.80
2018-05-08T00:14:20.840Z,4.30
2018-05-08T00:15:20.837Z,4.20
2018-05-08T00:16:20.887Z,4.50
2018-05-08T00:17:20.860Z,3.80
2018-05-08T00:18:20.923Z,4.10
2018-05-08T00:19:20.902Z,5.30
2018-05-08T00:20:20.911Z,4.00
2018-05-08T00:21:20.910Z,4.70
2018-05-08T00:22:20.918Z,5.30
2018-05-08T00:23:21.014Z,3.90
2018-05-08T00:24:20.953Z,6.00
2018-05-08T00:25:20.975Z,5.70
2018-05-08T00:26:20.970Z,4.20
2018-05-08T00:27:20.992Z,4.20
2018-05-08T00:28:21.037Z,4.20
2018-05-08T00:29:21.877Z,4.60
2018-05-08T00:30:21.031Z,4.10
2018-05-08T00:31:21.050Z,3.90
2018-05-08T00:32:21.059Z,4.30
2018-05-08T00:33:21.091Z,4.60
2018-05-08T00:34:21.094Z,4.30
2018-05-08T00:35:21.079Z,3.90
2018-05-08T00:36:21.101Z,4.90
2018-05-08T00:37:21.113Z,4.60
2018-05-08T00:38:21.931Z,4.50
2018-05-08T00:39:21.132Z,4.70
2018-05-08T00:40:21.157Z,4.30
2018-05-08T00:41:21.168Z,3.80
2018-05-08T00:42:21.181Z,4.40
2018-05-08T00:43:21.195Z,4.10
2018-05-08T00:44:21.220Z,4.30
2018-05-08T00:45:21.267Z,5.10
2018-05-08T00:46:21.221Z,5.00
2018-05-08T00:55:58.295Z,5.20
2018-05-08T00:56:58.310Z,4.80
2018-05-08T00:57:58.277Z,5.30
2018-05-08T00:58:58.293Z,4.70
2018-05-08T00:59:58.300Z,4.50
2018-05-08T01:00:58.387Z,4.50
2018-05-08T01:01:58.314Z,5.40
2018-05-08T01:02:58.381Z,4.60
2018-05-08T01:03:58.344Z,4.50
2018-05-08T01:04:58.361Z,4.20
2018-05-08T01:05:58.410Z,4.60
2018-05-08T01:06:58.436Z,4.60
2018-05-08T01:07:58.396Z,5.40
2018-05-08T01:08:58.394Z,4.40
2018-05-08T01:09:58.439Z,4.50
2018-05-08T01:10:58.488Z,4.60
2018-05-08T01:11:58.457Z,4.40
2018-05-08T01:12:58.465Z,4.40
2018-05-08T01:13:58.460Z,3.90
2018-05-08T01:14:58.473Z,4.20
2018-05-08T01:15:58.536Z,4.20
2018-05-08T01:16:58.566Z,4.70
2018-05-08T01:17:58.542Z,4.70
2018-05-08T01:18:58.535Z,4.20
2018-05-08T01:19:58.531Z,4.70
2018-05-08T01:20:58.579Z,4.80
2018-05-08T01:21:58.622Z,4.40
2018-05-08T01:22:58.574Z,4.40
2018-05-08T01:23:58.597Z,4.30
2018-05-08T01:24:58.725Z,4.60
2018-05-08T01:25:58.618Z,4.20
2018-05-08T01:26:58.661Z,4.50
2018-05-08T01:27:58.665Z,4.50
2018-05-08T01:28:58.665Z,4.70
2018-05-08T01:29:59.914Z,6.20
2018-05-08T01:30:58.810Z,4.30
2018-05-08T01:31:58.719Z,4.60
2018-05-08T01:32:58.832Z,4.10
2018-05-08T01:33:58.722Z,4.40
2018-05-08T01:34:58.722Z,4.00
2018-05-08T01:35:58.808Z,4.30
2018-05-08T01:36:58.740Z,4.30
2018-05-08T01:37:58.747Z,4.40
2018-05-08T01:38:58.804Z,4.30
2018-05-08T01:39:58.809Z,4.50
2018-05-08T01:40:59.482Z,4.90
2018-05-08T01:41:58.815Z,4.50
2018-05-08T01:42:58.868Z,4.30
2018-05-08T01:43:58.885Z,4.80
2018-05-08T01:44:58.886Z,4.90
2018-05-08T01:45:58.854Z,4.20
2018-05-08T01:46:58.857Z,4.70
2018-05-08T01:47:58.862Z,4.10
2018-05-08T01:48:58.907Z,4.20
2018-05-08T01:49:58.924Z,4.60
2018-05-08T01:50:58.926Z,4.60
2018-05-08T01:51:58.937Z,4.60
2018-05-08T01:52:58.939Z,4.30
2018-05-08T01:53:58.939Z,4.40
2018-05-08T01:54:59.002Z,5.10
2018-05-08T01:55:58.971Z,4.40
2018-05-08T01:56:58.980Z,4.20
2018-05-08T01:57:59.032Z,4.60
2018-05-08T01:58:59.004Z,4.70
2018-05-08T01:59:59.023Z,5.30
2018-05-08T02:00:59.043Z,4.80
2018-05-08T02:01:59.067Z,4.50
2018-05-08T02:02:59.093Z,4.90
2018-05-08T02:03:59.135Z,4.50
2018-05-08T02:05:00.135Z,5.10
2018-05-08T02:05:59.101Z,4.70
2018-05-08T02:06:59.090Z,4.70
2018-05-08T02:07:59.111Z,4.80
2018-05-08T02:08:59.207Z,4.40
2018-05-08T02:09:59.183Z,4.70
2018-05-08T02:10:59.133Z,5.90
2018-05-08T02:11:59.183Z,5.10
2018-05-08T02:12:59.201Z,4.50
2018-05-08T02:13:59.196Z,6.00
2018-05-08T02:14:59.232Z,4.80
2018-05-08T02:15:59.222Z,4.70
2018-05-08T02:16:59.231Z,4.80
2018-05-08T02:17:59.231Z,4.90
2018-05-08T02:18:59.240Z,5.00
2018-05-08T02:19:59.292Z,4.90
2018-05-08T02:20:59.272Z,5.00
2018-05-08T02:21:59.283Z,4.50
2018-05-08T02:22:59.299Z,4.70
2018-05-08T02:23:59.317Z,4.80
2018-05-08T02:24:59.361Z,4.80
2018-05-08T02:25:59.390Z,4.60
2018-05-08T02:26:59.330Z,5.00
2018-05-08T02:27:59.369Z,4.60
2018-05-08T02:28:59.358Z,4.90
2018-05-08T02:29:59.369Z,4.80
2018-05-08T02:30:59.419Z,5.00
2018-05-08T02:31:59.402Z,4.80
2018-05-08T02:32:59.418Z,5.20
2018-05-08T02:33:59.417Z,4.50
2018-05-08T02:34:59.445Z,5.40
2018-05-08T02:35:59.485Z,5.60
2018-05-08T02:36:59.458Z,4.70
2018-05-08T02:37:59.513Z,5.80
2018-05-08T02:38:59.519Z,5.40
2018-05-08T02:39:59.536Z,4.80
2018-05-08T02:40:59.502Z,5.20
2018-05-08T02:41:59.508Z,5.40
2018-05-08T02:42:59.525Z,5.90
2018-05-08T02:43:59.528Z,4.90
2018-05-08T02:44:59.616Z,5.10
2018-05-08T02:45:59.568Z,5.10
2018-05-08T02:46:59.577Z,5.70
2018-05-08T02:47:59.597Z,5.20
2018-05-08T02:48:59.584Z,4.90
2018-05-08T02:49:59.619Z,5.10
2018-05-08T02:50:59.668Z,5.20
2018-05-08T02:51:59.650Z,5.40
2018-05-08T02:52:59.655Z,4.70
2018-05-08T02:53:59.661Z,5.30
2018-05-08T02:54:59.660Z,5.30
2018-05-08T02:55:59.711Z,5.70
2018-05-08T02:56:59.703Z,5.30
2018-05-08T02:57:59.699Z,5.50
2018-05-08T02:58:59.738Z,5.60
2018-05-08T02:59:59.719Z,4.90
2018-05-08T03:00:59.769Z,5.80
2018-05-08T03:01:59.769Z,5.80
2018-05-08T03:02:59.787Z,5.10
2018-05-08T03:03:59.767Z,5.70
2018-05-08T03:04:59.777Z,5.10
2018-05-08T03:05:59.803Z,5.60
2018-05-08T03:06:59.831Z,5.40
2018-05-08T03:07:59.826Z,5.00
2018-05-08T03:08:59.824Z,5.40
2018-05-08T03:09:59.868Z,5.60
2018-05-08T03:10:59.858Z,5.50
2018-05-08T03:11:59.873Z,5.10
2018-05-08T03:12:59.911Z,5.20
2018-05-08T03:13:59.881Z,6.30
2018-05-08T03:14:59.888Z,5.60
2018-05-08T03:15:59.936Z,7.50
2018-05-08T03:16:59.909Z,6.20
2018-05-08T03:17:59.931Z,6.00
2018-05-08T03:18:59.960Z,5.40
2018-05-08T03:19:59.984Z,5.80
2018-05-08T03:20:59.952Z,5.10
2018-05-08T03:21:59.969Z,6.60
2018-05-08T03:23:00.009Z,5.40
2018-05-08T03:24:00.006Z,5.30
2018-05-08T03:25:00.043Z,6.70
2018-05-08T03:26:00.018Z,5.60
2018-05-08T03:27:00.031Z,5.40
2018-05-08T03:28:00.042Z,5.40
2018-05-08T03:29:00.056Z,5.40
2018-05-08T03:30:00.081Z,5.50
2018-05-08T03:31:00.091Z,5.80
2018-05-08T03:32:00.077Z,5.90
2018-05-08T03:33:00.119Z,6.20
2018-05-08T03:34:00.124Z,5.80
2018-05-08T03:35:00.111Z,6.00
2018-05-08T03:36:00.260Z,5.70
2018-05-08T03:37:00.151Z,6.10
2018-05-08T03:38:00.174Z,5.80
2018-05-08T03:39:00.170Z,6.00
2018-05-08T03:40:00.172Z,6.00
2018-05-08T03:41:00.195Z,5.70
2018-05-08T03:42:00.237Z,5.70
2018-05-08T03:43:00.205Z,6.60
2018-05-08T03:44:00.215Z,6.20
2018-05-08T03:45:00.218Z,6.30
2018-05-08T03:46:00.262Z,6.90
2018-05-08T03:47:00.272Z,5.50
2018-05-08T03:48:00.281Z,5.90
2018-05-08T03:49:00.283Z,6.10
2018-05-08T03:50:00.323Z,6.00
2018-05-08T03:51:00.298Z,5.90
2018-05-08T03:52:00.332Z,6.10
2018-05-08T03:53:00.350Z,6.20
2018-05-08T03:54:00.331Z,5.90
2018-05-08T03:55:00.385Z,6.20
2018-05-08T03:56:00.345Z,6.00
2018-05-08T03:57:00.356Z,5.70
2018-05-08T03:58:00.368Z,5.90
2018-05-08T03:59:00.384Z,6.20
2018-05-08T04:00:00.469Z,7.00
2018-05-08T04:01:00.436Z,6.60
2018-05-08T04:02:00.429Z,5.90
2018-05-08T04:03:00.434Z,5.90
2018-05-08T04:04:00.449Z,6.20
2018-05-08T04:05:00.456Z,6.10
2018-05-08T04:06:00.512Z,6.10
2018-05-08T04:07:00.500Z,5.70
2018-05-08T04:08:00.526Z,6.30
2018-05-08T04:09:00.492Z,5.70
2018-05-08T04:10:00.520Z,5.80
2018-05-08T04:11:00.544Z,6.30
2018-05-08T04:12:00.543Z,6.90
2018-05-08T04:13:00.603Z,6.10
2018-05-08T04:14:00.598Z,6.50
2018-05-08T04:15:00.577Z,6.90
2018-05-08T04:16:00.583Z,6.00
2018-05-08T04:17:00.591Z,6.40
2018-05-08T04:18:00.651Z,6.60
2018-05-08T04:19:00.619Z,6.60
2018-05-08T04:20:00.667Z,6.40
2018-05-08T04:21:00.694Z,6.40
2018-05-08T04:22:00.676Z,6.30
2018-05-08T04:23:00.676Z,6.50
2018-05-08T04:24:00.685Z,6.40
2018-05-08T04:25:00.693Z,7.30
2018-05-08T04:26:00.702Z,6.30
2018-05-08T04:27:00.744Z,7.20
2018-05-08T04:28:00.743Z,6.20
2018-05-08T04:29:00.728Z,7.20
2018-05-08T04:30:00.741Z,6.20
2018-05-08T04:31:00.774Z,6.30
2018-05-08T04:32:00.825Z,6.90
2018-05-08T04:33:00.806Z,7.70
2018-05-08T04:34:00.823Z,6.80
2018-05-08T04:35:00.812Z,6.20
2018-05-08T04:36:00.853Z,7.10
2018-05-08T04:37:00.825Z,6.20
2018-05-08T04:38:00.846Z,6.40
2018-05-08T04:39:00.907Z,6.60
2018-05-08T04:40:00.907Z,6.80
2018-05-08T04:41:00.892Z,6.70
2018-05-08T04:42:00.895Z,7.00
2018-05-08T04:43:00.912Z,6.50
2018-05-08T04:44:00.959Z,6.30
2018-05-08T04:45:00.950Z,5.90
2018-05-08T04:46:00.975Z,7.60
2018-05-08T04:47:00.977Z,6.50
2018-05-08T04:48:01.005Z,6.20
2018-05-08T04:49:00.989Z,6.20
2018-05-08T04:50:00.992Z,6.40
2018-05-08T04:51:01.041Z,6.90
2018-05-08T04:52:01.009Z,6.30
2018-05-08T04:53:01.077Z,6.50
2018-05-08T04:54:01.045Z,6.60
2018-05-08T04:55:01.096Z,7.40
2018-05-08T04:56:01.065Z,6.70
2018-05-08T04:57:01.116Z,6.30
2018-05-08T04:58:01.106Z,6.40
2018-05-08T04:59:01.125Z,6.30
2018-05-08T05:00:01.151Z,6.50
2018-05-08T05:01:01.136Z,7.10
2018-05-08T05:02:01.169Z,7.50
2018-05-08T05:03:01.213Z,6.00
2018-05-08T05:04:01.171Z,5.90
2018-05-08T05:05:01.200Z,6.20
2018-05-08T05:06:01.206Z,6.20
2018-05-08T05:07:01.303Z,7.20
2018-05-08T05:08:01.286Z,6.20
2018-05-08T05:09:01.256Z,6.30
2018-05-08T05:10:01.264Z,6.50
2018-05-08T05:11:01.369Z,6.20
2018-05-08T05:12:01.294Z,6.20
2018-05-08T05:13:01.332Z,5.80
2018-05-08T05:14:01.375Z,6.20
2018-05-08T05:15:01.348Z,8.40
2018-05-08T05:16:01.366Z,6.90
2018-05-08T05:17:01.362Z,5.80
2018-05-08T05:18:01.400Z,5.90
2018-05-08T05:19:01.483Z,7.90
2018-05-08T05:20:01.441Z,5.50
2018-05-08T05:21:01.428Z,6.00
2018-05-08T05:22:01.446Z,6.60
2018-05-08T05:23:01.533Z,6.20
2018-05-08T05:24:01.547Z,6.40
2018-05-08T05:25:01.495Z,6.40
2018-05-08T05:26:01.549Z,5.90
2018-05-08T05:27:01.524Z,7.20
2018-05-08T05:28:01.568Z,6.40
2018-05-08T05:29:01.568Z,6.40
2018-05-08T05:30:01.597Z,5.80
2018-05-08T05:31:01.641Z,5.90
2018-05-08T05:32:01.641Z,5.80
2018-05-08T05:33:01.660Z,6.00
2018-05-08T05:34:01.689Z,7.10
2018-05-08T05:35:01.680Z,6.10
2018-05-08T05:36:01.678Z,6.60
2018-05-08T05:37:01.748Z,7.50
2018-05-08T05:38:01.722Z,7.70
2018-05-08T05:39:01.777Z,6.10
2018-05-08T05:40:01.759Z,6.80
2018-05-08T05:41:01.847Z,5.90
2018-05-08T05:42:01.781Z,6.40
2018-05-08T05:43:01.869Z,6.30
2018-05-08T05:44:01.848Z,7.10
2018-05-08T05:45:01.849Z,6.90
2018-05-08T05:46:01.862Z,6.40
2018-05-08T05:47:01.875Z,5.90
2018-05-08T05:48:01.924Z,6.20
2018-05-08T05:49:01.944Z,7.40
2018-05-08T05:50:01.926Z,7.00
2018-05-08T05:51:01.986Z,7.40
2018-05-08T05:52:01.965Z,7.80
2018-05-08T05:53:01.977Z,7.80
2018-05-08T05:54:02.006Z,7.70
2018-05-08T05:55:02.018Z,7.00
2018-05-08T05:56:02.061Z,7.40
2018-05-08T05:57:02.043Z,8.50
2018-05-08T05:58:02.097Z,7.60
2018-05-08T05:59:02.087Z,10.90
2018-05-08T06:00:02.180Z,11.00
2018-05-08T06:01:02.159Z,12.20
2018-05-08T06:02:02.170Z,11.20
2018-05-08T06:03:02.155Z,10.20
2018-05-08T06:04:02.171Z,10.70
2018-05-08T06:05:02.184Z,10.10
2018-05-08T06:06:02.242Z,9.70
2018-05-08T06:07:02.270Z,9.20
2018-05-08T06:08:02.249Z,7.30
2018-05-08T06:09:03.228Z,8.50
2018-05-08T06:10:02.264Z,8.30
2018-05-08T06:11:02.266Z,8.10
2018-05-08T06:12:02.362Z,8.00
2018-05-08T06:13:02.301Z,9.70
2018-05-08T06:14:02.337Z,9.50
2018-05-08T06:15:02.348Z,7.40
2018-05-08T06:16:02.366Z,8.90
2018-05-08T06:17:02.407Z,9.60
2018-05-08T06:18:02.396Z,8.30
2018-05-08T06:19:02.409Z,8.40
2018-05-08T06:20:02.449Z,11.20
2018-05-08T06:21:02.431Z,16.50
2018-05-08T06:22:02.445Z,16.00
2018-05-08T06:23:02.491Z,11.70
2018-05-08T06:24:02.463Z,12.90
2018-05-08T06:25:02.497Z,11.60
2018-05-08T06:26:02.492Z,11.40
2018-05-08T06:27:02.553Z,8.80
2018-05-08T06:28:02.529Z,9.50
2018-05-08T06:29:02.555Z,7.10
2018-05-08T06:30:02.551Z,8.90
2018-05-08T06:31:02.561Z,11.90
2018-05-08T06:32:02.630Z,8.80
2018-05-08T06:33:02.634Z,8.80
2018-05-08T06:34:02.623Z,7.00
2018-05-08T06:35:02.671Z,7.20
2018-05-08T06:36:02.648Z,7.90
2018-05-08T06:37:02.667Z,10.60
2018-05-08T06:38:02.670Z,9.80
2018-05-08T06:39:02.695Z,7.00
2018-05-08T06:40:02.804Z,6.30
2018-05-08T06:41:02.704Z,7.50
2018-05-08T06:42:02.731Z,7.40
2018-05-08T06:43:02.746Z,6.80
2018-05-08T06:44:02.769Z,7.80
2018-05-08T06:45:02.820Z,6.30
2018-05-08T06:46:02.784Z,7.70
2018-05-08T06:47:02.793Z,7.40
2018-05-08T06:48:02.821Z,5.70
2018-05-08T06:49:02.852Z,6.70
2018-05-08T06:50:02.894Z,7.20
2018-05-08T06:51:02.925Z,7.10
2018-05-08T06:52:02.869Z,6.20
2018-05-08T06:53:02.886Z,6.00
2018-05-08T06:54:02.895Z,7.40
2018-05-08T06:55:02.930Z,5.70
2018-05-08T06:56:02.956Z,7.10
2018-05-08T06:57:02.943Z,6.80
2018-05-08T06:58:02.949Z,6.10
2018-05-08T06:59:03.061Z,5.70
2018-05-08T07:00:02.971Z,6.20
2018-05-08T07:01:03.056Z,6.40
2018-05-08T07:02:02.997Z,5.80
2018-05-08T07:03:03.107Z,5.50
2018-05-08T07:04:03.031Z,6.80
2018-05-08T07:05:03.043Z,5.60
2018-05-08T07:06:03.105Z,8.20
2018-05-08T07:07:03.110Z,6.90
2018-05-08T07:08:03.117Z,7.20
2018-05-08T07:09:03.183Z,5.70
2018-05-08T07:10:03.126Z,5.50
2018-05-08T07:11:03.145Z,6.90
2018-05-08T07:12:03.155Z,7.80
2018-05-08T07:13:03.227Z,7.40
2018-05-08T07:14:03.171Z,6.40
2018-05-08T07:15:03.193Z,7.20
2018-05-08T07:16:03.378Z,7.40
2018-05-08T07:17:03.226Z,8.70
2018-05-08T07:18:03.256Z,6.70
2018-05-08T07:19:03.256Z,7.60
2018-05-08T07:20:03.249Z,6.30
2018-05-08T07:21:03.353Z,6.40
2018-05-08T07:22:03.276Z,5.80
2018-05-08T07:23:03.296Z,5.90
2018-05-08T07:24:03.419Z,7.30
2018-05-08T07:25:03.340Z,5.40
2018-05-08T07:26:03.349Z,5.60
2018-05-08T07:27:03.358Z,5.70
2018-05-08T07:28:03.369Z,5.20
2018-05-08T07:29:03.413Z,5.20
2018-05-08T07:30:03.439Z,6.10
2018-05-08T07:31:03.404Z,5.40
2018-05-08T07:32:03.433Z,5.60
2018-05-08T07:33:03.495Z,6.40
2018-05-08T07:34:03.448Z,6.00
2018-05-08T07:35:03.471Z,4.70
2018-05-08T07:36:03.483Z,6.30
2018-05-08T07:37:03.498Z,4.90
2018-05-08T07:38:03.606Z,5.90
2018-05-08T07:39:03.510Z,6.90
2018-05-08T07:40:03.685Z,5.30
2018-05-08T07:41:03.589Z,7.80
2018-05-08T07:42:03.566Z,5.50
2018-05-08T07:43:03.568Z,5.40
2018-05-08T07:44:03.578Z,5.90
2018-05-08T07:45:03.724Z,4.60
2018-05-08T07:46:03.644Z,5.50
2018-05-08T07:47:03.627Z,4.60
2018-05-08T07:48:03.657Z,4.70
2018-05-08T07:49:03.758Z,5.00
2018-05-08T07:50:03.674Z,6.20
2018-05-08T07:51:03.728Z,5.00
2018-05-08T07:52:03.700Z,4.50
2018-05-08T07:53:03.745Z,5.40
2018-05-08T07:54:03.759Z,5.10
2018-05-08T07:55:03.748Z,5.10
2018-05-08T07:56:03.769Z,5.50
2018-05-08T07:57:03.775Z,4.70
2018-05-08T07:58:03.782Z,5.10
2018-05-08T07:59:03.832Z,5.50
2018-05-08T08:00:03.820Z,4.90
2018-05-08T08:01:03.826Z,5.00
2018-05-08T08:02:03.850Z,4.30
2018-05-08T08:03:03.861Z,4.70
2018-05-08T08:04:03.908Z,5.30
2018-05-08T08:05:03.876Z,4.10
2018-05-08T08:06:03.919Z,4.80
2018-05-08T08:07:03.894Z,5.90
2018-05-08T08:08:03.958Z,5.10
2018-05-08T08:09:03.940Z,4.00
2018-05-08T08:10:03.957Z,4.10
2018-05-08T08:11:04.016Z,5.40
2018-05-08T08:12:03.981Z,4.30
2018-05-08T08:13:03.989Z,4.80
2018-05-08T08:14:04.036Z,4.60
2018-05-08T08:15:04.010Z,5.10
2018-05-08T08:16:04.123Z,4.40
2018-05-08T08:17:04.060Z,5.10
2018-05-08T08:18:04.071Z,4.10
2018-05-08T08:19:04.084Z,5.40
2018-05-08T08:20:04.094Z,6.20
2018-05-08T08:21:04.161Z,4.70
2018-05-08T08:22:04.208Z,5.20
2018-05-08T08:23:04.146Z,4.10
2018-05-08T08:24:04.139Z,4.90
2018-05-08T08:25:04.175Z,6.50
2018-05-08T08:26:04.201Z,6.30
2018-05-08T08:27:04.212Z,4.40
2018-05-08T08:28:04.245Z,10.80
2018-05-08T08:29:04.227Z,5.00
2018-05-08T08:30:04.239Z,4.70
2018-05-08T08:31:04.256Z,4.20
2018-05-08T08:32:04.307Z,4.60
2018-05-08T08:33:04.283Z,4.10
2018-05-08T08:34:04.282Z,5.00
2018-05-08T08:35:04.289Z,4.40
2018-05-08T08:36:04.329Z,3.80
2018-05-08T08:37:04.363Z,3.90
2018-05-08T08:38:04.335Z,4.00
2018-05-08T08:39:04.348Z,4.40
2018-05-08T08:40:04.429Z,4.10
2018-05-08T08:41:04.389Z,5.50
2018-05-08T08:42:04.385Z,4.70
2018-05-08T08:43:04.447Z,4.50
2018-05-08T08:44:04.423Z,6.10
2018-05-08T08:45:04.469Z,4.00
2018-05-08T08:46:04.450Z,5.30
2018-05-08T08:47:04.479Z,4.40
2018-05-08T08:48:04.543Z,4.10
2018-05-08T08:49:04.487Z,5.10
2018-05-08T08:50:04.507Z,4.80
2018-05-08T08:51:04.541Z,4.50
2018-05-08T08:52:04.578Z,5.60
2018-05-08T08:53:04.546Z,4.10
2018-05-08T08:54:04.571Z,4.80
2018-05-08T08:55:04.617Z,4.20
2018-05-08T08:56:04.633Z,3.80
2018-05-08T08:57:04.611Z,3.20
2018-05-08T08:58:04.625Z,3.60
2018-05-08T08:59:04.701Z,5.30
2018-05-08T09:00:04.653Z,4.00
2018-05-08T09:01:04.674Z,3.90
2018-05-08T09:02:04.695Z,2.80
2018-05-08T09:03:04.699Z,2.60
2018-05-08T09:04:04.815Z,3.60
2018-05-08T09:05:04.735Z,2.40
2018-05-08T09:06:04.767Z,3.90
2018-05-08T09:07:04.747Z,2.80
2018-05-08T09:08:04.819Z,5.90
2018-05-08T09:09:04.798Z,3.50
2018-05-08T09:10:04.836Z,3.90
2018-05-08T09:11:04.824Z,3.20
2018-05-08T09:12:04.833Z,3.40
2018-05-08T09:13:04.899Z,2.80
2018-05-08T09:14:04.853Z,3.20
2018-05-08T09:15:04.873Z,2.80
2018-05-08T09:16:04.890Z,3.20
2018-05-08T09:17:04.927Z,2.40
2018-05-08T09:18:04.963Z,1.90
2018-05-08T09:19:04.925Z,2.60
2018-05-08T09:20:04.990Z,3.00
2018-05-08T09:21:04.979Z,2.30
2018-05-08T09:22:04.987Z,3.60
2018-05-08T09:23:04.981Z,4.00
2018-05-08T09:24:05.019Z,4.00
2018-05-08T09:25:05.093Z,4.30
2018-05-08T09:26:05.061Z,6.00
2018-05-08T09:27:05.049Z,3.60
2018-05-08T09:28:05.079Z,4.20
2018-05-08T09:29:05.066Z,3.20
2018-05-08T09:30:05.125Z,4.30
2018-05-08T09:31:05.105Z,3.30
2018-05-08T09:32:05.128Z,2.20
2018-05-08T09:33:05.359Z,3.00
2018-05-08T09:34:05.162Z,3.60
2018-05-08T09:35:05.223Z,3.20
2018-05-08T09:36:05.166Z,3.50
2018-05-08T09:37:05.197Z,3.60
2018-05-08T09:38:05.202Z,5.80
2018-05-08T09:39:05.211Z,5.00
2018-05-08T09:40:05.304Z,3.50
2018-05-08T09:41:05.338Z,2.80
2018-05-08T09:42:05.262Z,3.00
2018-05-08T09:43:05.277Z,2.50
2018-05-08T09:44:05.299Z,2.60
2018-05-08T09:45:05.300Z,3.90
2018-05-08T09:46:05.386Z,3.80
2018-05-08T09:47:05.380Z,3.60
2018-05-08T09:48:05.356Z,3.40
2018-05-08T09:49:05.455Z,2.50
2018-05-08T09:50:05.417Z,4.00
2018-05-08T09:51:05.461Z,6.30
2018-05-08T09:52:05.452Z,2.60
2018-05-08T09:53:05.430Z,4.00
2018-05-08T09:54:05.483Z,2.60
2018-05-08T09:55:05.455Z,3.10
2018-05-08T09:56:05.476Z,2.70
2018-05-08T09:57:05.513Z,4.30
2018-05-08T09:58:05.541Z,3.40
2018-05-08T09:59:05.517Z,3.90
2018-05-08T10:00:05.570Z,3.30
2018-05-08T10:01:05.591Z,5.80
2018-05-08T10:02:05.606Z,2.40
2018-05-08T10:03:05.572Z,2.50
2018-05-08T10:04:05.639Z,3.40
2018-05-08T10:05:05.610Z,3.50
2018-05-08T10:06:05.618Z,3.20
2018-05-08T10:07:05.658Z,3.70
2018-05-08T10:08:05.678Z,2.70
2018-05-08T10:09:05.649Z,4.50
2018-05-08T10:10:05.678Z,5.00
2018-05-08T10:11:05.684Z,3.70
2018-05-08T10:12:05.708Z,3.20
2018-05-08T10:13:05.759Z,3.60
2018-05-08T10:14:05.725Z,4.10
2018-05-08T10:15:05.754Z,3.30
2018-05-08T10:16:05.811Z,3.70
2018-05-08T10:17:05.802Z,2.00
2018-05-08T10:18:05.791Z,3.10
2018-05-08T10:19:05.799Z,3.20
2018-05-08T10:20:05.809Z,4.80
2018-05-08T10:21:05.933Z,3.40
2018-05-08T10:22:05.839Z,3.70
2018-05-08T10:23:05.879Z,3.40
2018-05-08T10:24:05.883Z,2.90
2018-05-08T10:25:05.888Z,4.20
2018-05-08T10:26:05.938Z,2.80
2018-05-08T10:27:05.949Z,3.20
2018-05-08T10:28:05.945Z,3.70
2018-05-08T10:29:05.961Z,5.00
2018-05-08T10:30:05.969Z,4.60
2018-05-08T10:31:06.031Z,3.60
2018-05-08T10:32:06.101Z,2.40
2018-05-08T10:33:06.015Z,2.60
2018-05-08T10:34:06.028Z,1.90
2018-05-08T10:35:06.064Z,4.40
2018-05-08T10:36:06.111Z,4.90
2018-05-08T10:37:06.075Z,3.70
2018-05-08T10:38:06.084Z,2.30
2018-05-08T10:39:06.178Z,3.00
2018-05-08T10:40:06.156Z,3.20
2018-05-08T10:41:06.192Z,3.50
2018-05-08T10:42:06.147Z,2.70
2018-05-08T10:43:06.257Z,2.70
2018-05-08T10:44:06.189Z,2.40
2018-05-08T10:45:06.197Z,3.30
2018-05-08T10:46:06.244Z,3.70
2018-05-08T10:47:06.316Z,5.40
2018-05-08T10:48:06.235Z,3.90
2018-05-08T10:49:06.246Z,5.10
2018-05-08T10:50:06.270Z,3.70
2018-05-08T10:51:06.337Z,2.80
2018-05-08T10:52:06.304Z,6.50
2018-05-08T10:53:06.352Z,5.20
2018-05-08T10:54:06.352Z,2.40
2018-05-08T10:55:06.333Z,3.10
2018-05-08T10:56:06.368Z,4.80
2018-05-08T10:57:06.381Z,4.30
2018-05-08T10:58:06.443Z,2.30
2018-05-08T10:59:06.391Z,3.30
2018-05-08T11:00:06.429Z,3.90
2018-05-08T11:01:06.431Z,4.50
2018-05-08T11:02:06.457Z,3.30
2018-05-08T11:03:06.530Z,2.60
2018-05-08T11:04:06.523Z,2.00
2018-05-08T11:05:06.484Z,2.80
2018-05-08T11:06:06.531Z,2.50
2018-05-08T11:07:06.516Z,2.00
2018-05-08T11:08:06.600Z,5.20
2018-05-08T11:09:06.606Z,1.80
2018-05-08T11:10:06.569Z,2.60
2018-05-08T11:11:06.573Z,2.30
2018-05-08T11:12:06.598Z,4.50
2018-05-08T11:13:06.659Z,4.80
2018-05-08T11:14:06.629Z,4.00
2018-05-08T11:15:06.635Z,1.90
2018-05-08T11:16:06.703Z,3.00
2018-05-08T11:17:06.674Z,3.60
2018-05-08T11:18:06.700Z,3.50
2018-05-08T11:19:06.710Z,2.80
2018-05-08T11:20:06.716Z,3.70
2018-05-08T11:21:06.817Z,3.30
2018-05-08T11:22:06.749Z,4.70
2018-05-08T11:23:06.757Z,2.50
2018-05-08T11:24:06.785Z,4.70
2018-05-08T11:25:06.792Z,3.40
2018-05-08T11:26:06.849Z,3.70
2018-05-08T11:27:06.861Z,2.50
2018-05-08T11:28:06.874Z,3.90
2018-05-08T11:29:06.875Z,5.30
2018-05-08T11:30:06.895Z,3.40
2018-05-08T11:31:06.895Z,3.30
2018-05-08T11:32:06.984Z,4.00
2018-05-08T11:33:06.923Z,4.00
2018-05-08T11:34:06.926Z,3.90
2018-05-08T11:35:06.969Z,2.80
2018-05-08T11:36:06.961Z,2.90
2018-05-08T11:37:07.010Z,3.80
2018-05-08T11:38:07.033Z,4.80
2018-05-08T11:39:07.023Z,2.80
2018-05-08T11:40:07.010Z,3.70
2018-05-08T11:41:07.099Z,2.30
2018-05-08T11:42:07.068Z,3.70
2018-05-08T11:43:07.138Z,2.30
2018-05-08T11:44:07.087Z,3.40
2018-05-08T11:45:07.154Z,3.70
2018-05-08T11:46:07.135Z,2.20
2018-05-08T11:47:07.130Z,3.80
2018-05-08T11:48:07.153Z,4.60
2018-05-08T11:49:07.236Z,3.10
2018-05-08T11:50:07.221Z,3.60
2018-05-08T11:51:07.189Z,4.30
2018-05-08T11:52:07.239Z,3.40
2018-05-08T11:53:07.281Z,2.80
2018-05-08T11:54:07.257Z,2.80
2018-05-08T11:55:07.273Z,2.50
2018-05-08T11:56:07.269Z,2.70
2018-05-08T11:57:07.320Z,4.40
2018-05-08T11:58:07.302Z,2.60
2018-05-08T11:59:07.298Z,3.90
2018-05-08T12:00:07.368Z,2.70
2018-05-08T12:01:07.354Z,3.90
2018-05-08T12:02:07.359Z,3.30
2018-05-08T12:03:07.362Z,3.20
2018-05-08T12:04:07.376Z,2.80
2018-05-08T12:05:07.432Z,3.50
2018-05-08T12:06:07.429Z,3.50
2018-05-08T12:07:07.429Z,3.30
2018-05-08T12:08:07.449Z,5.60
2018-05-08T12:09:07.534Z,3.00
2018-05-08T12:10:07.542Z,3.80
2018-05-08T12:11:07.489Z,2.60
2018-05-08T12:12:07.513Z,2.50
2018-05-08T12:13:07.530Z,2.70
2018-05-08T12:14:07.545Z,2.50
2018-05-08T12:15:07.602Z,2.60
2018-05-08T12:16:07.569Z,2.40
2018-05-08T12:17:07.633Z,2.60
2018-05-08T12:18:07.599Z,2.80
2018-05-08T12:19:07.641Z,2.80
2018-05-08T12:20:07.631Z,2.60
2018-05-08T12:21:07.649Z,2.40
2018-05-08T12:22:07.694Z,2.40
2018-05-08T12:23:07.666Z,2.70
2018-05-08T12:24:07.737Z,3.90
2018-05-08T12:25:07.735Z,3.20
2018-05-08T12:26:07.713Z,3.10
2018-05-08T12:27:07.779Z,2.90
2018-05-08T12:28:07.794Z,3.80
2018-05-08T12:29:07.770Z,4.90
2018-05-08T12:30:07.824Z,2.50
2018-05-08T12:31:07.802Z,3.00
2018-05-08T12:32:07.811Z,3.70
2018-05-08T12:33:07.933Z,2.50
2018-05-08T12:34:07.845Z,3.50
2018-05-08T12:35:07.862Z,3.10
2018-05-08T12:36:07.870Z,3.30
2018-05-08T12:37:07.916Z,2.70
2018-05-08T12:38:07.934Z,2.80
2018-05-08T12:39:08.003Z,3.00
2018-05-08T12:40:07.922Z,2.50
2018-05-08T12:41:07.967Z,2.60
2018-05-08T12:42:08.044Z,2.60
2018-05-08T12:43:07.986Z,3.20
2018-05-08T12:44:08.031Z,4.00
2018-05-08T12:45:08.023Z,3.30
2018-05-08T12:46:08.025Z,2.70
2018-05-08T12:47:08.082Z,3.50
2018-05-08T12:48:08.057Z,3.20
2018-05-08T12:49:08.099Z,3.10
2018-05-08T12:50:08.188Z,2.90
2018-05-08T12:51:08.095Z,2.80
2018-05-08T12:52:08.121Z,5.50
2018-05-08T12:53:08.190Z,3.30
2018-05-08T12:54:08.141Z,3.70
2018-05-08T12:55:08.179Z,2.60
2018-05-08T12:56:08.215Z,3.30
2018-05-08T12:57:08.208Z,4.60
2018-05-08T12:58:08.252Z,3.80
2018-05-08T12:59:08.237Z,2.30
2018-05-08T13:00:08.238Z,3.20
2018-05-08T13:01:08.322Z,4.20
2018-05-08T13:02:08.269Z,2.60
2018-05-08T13:03:08.287Z,2.40
2018-05-08T13:04:08.297Z,2.30
2018-05-08T13:05:08.374Z,5.70
2018-05-08T13:06:08.331Z,3.70
2018-05-08T13:07:08.379Z,5.90
2018-05-08T13:08:08.375Z,5.50
2018-05-08T13:09:08.444Z,7.00
2018-05-08T13:10:08.398Z,2.40
2018-05-08T13:11:08.420Z,2.30
2018-05-08T13:12:08.625Z,2.80
2018-05-08T13:13:08.484Z,3.90
2018-05-08T13:14:08.543Z,2.40
2018-05-08T13:15:08.480Z,3.60
2018-05-08T13:16:08.524Z,3.00
2018-05-08T13:17:08.496Z,3.80
2018-05-08T13:18:08.576Z,5.00
2018-05-08T13:19:08.544Z,4.90
2018-05-08T13:20:08.565Z,3.10
2018-05-08T13:21:08.601Z,3.10
2018-05-08T13:22:08.594Z,3.00
2018-05-08T13:23:08.597Z,2.30
2018-05-08T13:24:08.628Z,2.30
2018-05-08T13:25:08.679Z,2.70
2018-05-08T13:26:08.656Z,3.30